sensor_id;sensor_type;location;lat;lon;timestamp;temperature;humidity
13856;DHT22;6998;53.608;9.958;2022-08-03T00:01:02;20.40;99.90
13856;DHT22;6998;53.608;9.958;2022-08-03T00:03:30;20.40;99.90
13856;DHT22;6998;53.608;9.958;2022-08-03T00:05:57;20.30;99.90
13856;DHT22;6998;53.608;9.958;2022-08-03T00:08:24;20.20;99.90
13856;DHT22;6998;53.608;9.958;2022-08-03T00:10:51;20.20;99.90
13856;DHT22;6998;53.608;9.958;2022-08-03T00:13:18;20.10;99.90
13856;DHT22;6998;53.608;9.958;2022-08-03T00:15:44;20.10;99.90
13856;DHT22;6998;53.608;9.958;2022-08-03T00:18:11;20.10;99.90
13856;DHT22;6998;53.608;9.958;2022-08-03T00:20:39;20.10;99.90
13856;DHT22;6998;53.608;9.958;2022-08-03T00:23:06;20.00;99.90
13856;DHT22;6998;53.608;9.958;2022-08-03T00:25:33;20.00;99.90
13856;DHT22;6998;53.608;9.958;2022-08-03T00:28:01;19.90;99.90
13856;DHT22;6998;53.608;9.958;2022-08-03T00:30:27;19.80;99.90
13856;DHT22;6998;53.608;9.958;2022-08-03T00:32:54;19.80;99.90
13856;DHT22;6998;53.608;9.958;2022-08-03T00:35:21;19.80;99.90
13856;DHT22;6998;53.608;9.958;2022-08-03T00:37:50;19.80;99.90
13856;DHT22;6998;53.608;9.958;2022-08-03T00:40:18;19.70;99.90
13856;DHT22;6998;53.608;9.958;2022-08-03T00:42:47;19.70;99.90
13856;DHT22;6998;53.608;9.958;2022-08-03T00:45:15;19.70;99.90
13856;DHT22;6998;53.608;9.958;2022-08-03T00:47:42;19.70;99.90
13856;DHT22;6998;53.608;9.958;2022-08-03T00:50:09;19.60;99.90
13856;DHT22;6998;53.608;9.958;2022-08-03T00:52:36;19.60;99.90
13856;DHT22;6998;53.608;9.958;2022-08-03T00:55:04;19.50;99.90
13856;DHT22;6998;53.608;9.958;2022-08-03T00:57:31;19.40;99.90
13856;DHT22;6998;53.608;9.958;2022-08-03T00:59:59;19.40;99.90
13856;DHT22;6998;53.608;9.958;2022-08-03T01:02:27;19.30;99.90
13856;DHT22;6998;53.608;9.958;2022-08-03T01:04:54;19.30;99.90
13856;DHT22;6998;53.608;9.958;2022-08-03T01:07:26;19.30;99.90
13856;DHT22;6998;53.608;9.958;2022-08-03T01:10:01;19.30;99.90
13856;DHT22;6998;53.608;9.958;2022-08-03T01:12:35;19.30;99.90
13856;DHT22;6998;53.608;9.958;2022-08-03T01:15:11;19.20;99.90
13856;DHT22;6998;53.608;9.958;2022-08-03T01:17:45;19.20;99.90
13856;DHT22;6998;53.608;9.958;2022-08-03T01:20:16;19.10;99.90
13856;DHT22;6998;53.608;9.958;2022-08-03T01:23:34;19.20;99.90
13856;DHT22;6998;53.608;9.958;2022-08-03T01:26:11;19.10;99.90
13856;DHT22;6998;53.608;9.958;2022-08-03T01:28:55;19.10;99.90
13856;DHT22;6998;53.608;9.958;2022-08-03T01:31:27;19.00;99.90
13856;DHT22;6998;53.608;9.958;2022-08-03T01:33:57;19.00;99.90
13856;DHT22;6998;53.608;9.958;2022-08-03T01:36:30;19.00;99.90
13856;DHT22;6998;53.608;9.958;2022-08-03T01:39:00;19.00;99.90
13856;DHT22;6998;53.608;9.958;2022-08-03T01:41:31;18.90;99.90
13856;DHT22;6998;53.608;9.958;2022-08-03T01:44:00;18.80;99.90
13856;DHT22;6998;53.608;9.958;2022-08-03T01:46:30;18.90;99.90
13856;DHT22;6998;53.608;9.958;2022-08-03T01:48:58;18.80;99.90
13856;DHT22;6998;53.608;9.958;2022-08-03T01:51:26;18.80;99.90
13856;DHT22;6998;53.608;9.958;2022-08-03T01:53:54;18.70;99.90
13856;DHT22;6998;53.608;9.958;2022-08-03T01:56:23;18.70;99.90
13856;DHT22;6998;53.608;9.958;2022-08-03T01:58:52;18.70;99.90
13856;DHT22;6998;53.608;9.958;2022-08-03T02:01:20;18.60;99.90
13856;DHT22;6998;53.608;9.958;2022-08-03T02:03:49;18.60;99.90
13856;DHT22;6998;53.608;9.958;2022-08-03T02:06:19;18.50;99.90
13856;DHT22;6998;53.608;9.958;2022-08-03T02:08:47;18.50;99.90
13856;DHT22;6998;53.608;9.958;2022-08-03T02:11:15;18.50;99.90
13856;DHT22;6998;53.608;9.958;2022-08-03T02:13:43;18.50;99.90
13856;DHT22;6998;53.608;9.958;2022-08-03T02:16:12;18.50;99.90
13856;DHT22;6998;53.608;9.958;2022-08-03T02:18:40;18.40;99.90
13856;DHT22;6998;53.608;9.958;2022-08-03T02:21:09;18.40;99.90
13856;DHT22;6998;53.608;9.958;2022-08-03T02:23:37;18.40;99.90
13856;DHT22;6998;53.608;9.958;2022-08-03T02:26:07;18.40;99.90
13856;DHT22;6998;53.608;9.958;2022-08-03T02:28:39;18.30;99.90
13856;DHT22;6998;53.608;9.958;2022-08-03T02:31:12;18.40;99.90
13856;DHT22;6998;53.608;9.958;2022-08-03T02:33:42;18.30;99.90
13856;DHT22;6998;53.608;9.958;2022-08-03T02:36:12;18.30;99.90
13856;DHT22;6998;53.608;9.958;2022-08-03T02:38:42;18.30;99.90
13856;DHT22;6998;53.608;9.958;2022-08-03T02:41:14;18.20;99.90
13856;DHT22;6998;53.608;9.958;2022-08-03T02:43:43;18.20;99.90
13856;DHT22;6998;53.608;9.958;2022-08-03T02:46:13;18.20;99.90
13856;DHT22;6998;53.608;9.958;2022-08-03T02:48:43;18.20;99.90
13856;DHT22;6998;53.608;9.958;2022-08-03T02:51:14;18.20;99.90
13856;DHT22;6998;53.608;9.958;2022-08-03T02:53:43;18.10;99.90
13856;DHT22;6998;53.608;9.958;2022-08-03T02:56:10;18.20;99.90
13856;DHT22;6998;53.608;9.958;2022-08-03T02:58:38;18.10;99.90
13856;DHT22;6998;53.608;9.958;2022-08-03T03:01:08;18.10;99.90
13856;DHT22;6998;53.608;9.958;2022-08-03T03:03:36;18.10;99.90
13856;DHT22;6998;53.608;9.958;2022-08-03T03:06:03;18.20;99.90
13856;DHT22;6998;53.608;9.958;2022-08-03T03:08:32;18.20;99.90
13856;DHT22;6998;53.608;9.958;2022-08-03T03:11:00;18.20;99.90
13856;DHT22;6998;53.608;9.958;2022-08-03T03:13:28;18.20;99.90
13856;DHT22;6998;53.608;9.958;2022-08-03T03:15:58;18.20;99.90
13856;DHT22;6998;53.608;9.958;2022-08-03T03:18:27;18.20;99.90
13856;DHT22;6998;53.608;9.958;2022-08-03T03:20:54;18.20;99.90
13856;DHT22;6998;53.608;9.958;2022-08-03T03:23:22;18.20;99.90
13856;DHT22;6998;53.608;9.958;2022-08-03T03:25:52;18.10;99.90
13856;DHT22;6998;53.608;9.958;2022-08-03T03:28:21;18.10;99.90
13856;DHT22;6998;53.608;9.958;2022-08-03T03:30:48;18.10;99.90
13856;DHT22;6998;53.608;9.958;2022-08-03T03:33:15;18.10;99.90
13856;DHT22;6998;53.608;9.958;2022-08-03T03:35:42;18.10;99.90
13856;DHT22;6998;53.608;9.958;2022-08-03T03:38:10;18.10;99.90
13856;DHT22;6998;53.608;9.958;2022-08-03T03:40:37;18.00;99.90
13856;DHT22;6998;53.608;9.958;2022-08-03T03:43:08;18.00;99.90
13856;DHT22;6998;53.608;9.958;2022-08-03T03:45:35;18.00;99.90
13856;DHT22;6998;53.608;9.958;2022-08-03T03:48:04;17.90;99.90
13856;DHT22;6998;53.608;9.958;2022-08-03T03:50:32;17.90;99.90
13856;DHT22;6998;53.608;9.958;2022-08-03T03:52:59;17.90;99.90
13856;DHT22;6998;53.608;9.958;2022-08-03T03:55:27;17.90;99.90
13856;DHT22;6998;53.608;9.958;2022-08-03T03:57:55;17.90;99.90
13856;DHT22;6998;53.608;9.958;2022-08-03T04:00:23;17.90;99.90
13856;DHT22;6998;53.608;9.958;2022-08-03T04:02:49;17.90;99.90
13856;DHT22;6998;53.608;9.958;2022-08-03T04:05:16;17.90;99.90
13856;DHT22;6998;53.608;9.958;2022-08-03T04:08:02;17.90;99.90
13856;DHT22;6998;53.608;9.958;2022-08-03T04:10:54;17.90;99.90
13856;DHT22;6998;53.608;9.958;2022-08-03T04:13:28;18.00;99.90
13856;DHT22;6998;53.608;9.958;2022-08-03T04:15:57;18.00;99.90
13856;DHT22;6998;53.608;9.958;2022-08-03T04:18:26;18.00;99.90
13856;DHT22;6998;53.608;9.958;2022-08-03T04:20:54;18.00;99.90
13856;DHT22;6998;53.608;9.958;2022-08-03T04:23:23;18.00;99.90
13856;DHT22;6998;53.608;9.958;2022-08-03T04:25:52;18.00;99.90
13856;DHT22;6998;53.608;9.958;2022-08-03T04:28:21;18.10;99.90
13856;DHT22;6998;53.608;9.958;2022-08-03T04:30:49;18.00;99.90
13856;DHT22;6998;53.608;9.958;2022-08-03T04:33:20;18.10;99.90
13856;DHT22;6998;53.608;9.958;2022-08-03T04:35:48;18.10;99.90
13856;DHT22;6998;53.608;9.958;2022-08-03T04:38:17;18.10;99.90
13856;DHT22;6998;53.608;9.958;2022-08-03T04:40:45;18.10;99.90
13856;DHT22;6998;53.608;9.958;2022-08-03T04:43:15;18.10;99.90
13856;DHT22;6998;53.608;9.958;2022-08-03T04:45:46;18.10;99.90
13856;DHT22;6998;53.608;9.958;2022-08-03T04:48:13;18.20;99.90
13856;DHT22;6998;53.608;9.958;2022-08-03T04:50:43;18.20;99.90
13856;DHT22;6998;53.608;9.958;2022-08-03T04:53:09;18.20;99.90
13856;DHT22;6998;53.608;9.958;2022-08-03T04:55:36;18.30;99.90
13856;DHT22;6998;53.608;9.958;2022-08-03T04:58:04;18.40;99.90
13856;DHT22;6998;53.608;9.958;2022-08-03T05:00:31;18.30;99.90
13856;DHT22;6998;53.608;9.958;2022-08-03T05:02:58;18.40;99.90
13856;DHT22;6998;53.608;9.958;2022-08-03T05:05:25;18.40;99.90
13856;DHT22;6998;53.608;9.958;2022-08-03T05:07:53;18.50;99.90
13856;DHT22;6998;53.608;9.958;2022-08-03T05:10:20;18.50;99.90
13856;DHT22;6998;53.608;9.958;2022-08-03T05:12:47;18.60;99.90
13856;DHT22;6998;53.608;9.958;2022-08-03T05:15:16;18.60;99.90
13856;DHT22;6998;53.608;9.958;2022-08-03T05:17:42;18.70;99.90
13856;DHT22;6998;53.608;9.958;2022-08-03T05:20:10;18.70;99.90
13856;DHT22;6998;53.608;9.958;2022-08-03T05:22:37;18.80;99.90
13856;DHT22;6998;53.608;9.958;2022-08-03T05:25:06;18.80;99.90
13856;DHT22;6998;53.608;9.958;2022-08-03T05:27:33;18.90;99.90
13856;DHT22;6998;53.608;9.958;2022-08-03T05:29:59;19.00;99.90
13856;DHT22;6998;53.608;9.958;2022-08-03T05:32:26;19.00;99.90
13856;DHT22;6998;53.608;9.958;2022-08-03T05:34:53;19.10;99.90
13856;DHT22;6998;53.608;9.958;2022-08-03T05:37:20;19.10;99.90
13856;DHT22;6998;53.608;9.958;2022-08-03T05:39:46;19.20;99.90
13856;DHT22;6998;53.608;9.958;2022-08-03T05:42:15;19.30;99.90
13856;DHT22;6998;53.608;9.958;2022-08-03T05:44:42;19.30;99.90
13856;DHT22;6998;53.608;9.958;2022-08-03T05:47:09;19.40;99.90
13856;DHT22;6998;53.608;9.958;2022-08-03T05:49:35;19.50;99.90
13856;DHT22;6998;53.608;9.958;2022-08-03T05:52:03;19.50;99.90
13856;DHT22;6998;53.608;9.958;2022-08-03T05:54:30;19.60;99.90
13856;DHT22;6998;53.608;9.958;2022-08-03T05:56:57;19.70;99.90
13856;DHT22;6998;53.608;9.958;2022-08-03T05:59:25;19.80;99.90
13856;DHT22;6998;53.608;9.958;2022-08-03T06:01:51;19.90;99.90
13856;DHT22;6998;53.608;9.958;2022-08-03T06:04:18;20.00;99.90
13856;DHT22;6998;53.608;9.958;2022-08-03T06:06:45;20.10;99.90
13856;DHT22;6998;53.608;9.958;2022-08-03T06:09:12;20.30;99.90
13856;DHT22;6998;53.608;9.958;2022-08-03T06:11:39;20.30;99.90
13856;DHT22;6998;53.608;9.958;2022-08-03T06:14:06;20.50;99.90
13856;DHT22;6998;53.608;9.958;2022-08-03T06:16:35;20.60;99.90
13856;DHT22;6998;53.608;9.958;2022-08-03T06:19:01;20.70;99.90
13856;DHT22;6998;53.608;9.958;2022-08-03T06:21:28;20.80;99.90
13856;DHT22;6998;53.608;9.958;2022-08-03T06:23:55;21.00;99.90
13856;DHT22;6998;53.608;9.958;2022-08-03T06:26:23;21.10;99.90
13856;DHT22;6998;53.608;9.958;2022-08-03T06:28:50;21.20;99.90
13856;DHT22;6998;53.608;9.958;2022-08-03T06:31:17;21.30;99.90
13856;DHT22;6998;53.608;9.958;2022-08-03T06:33:45;21.40;99.90
13856;DHT22;6998;53.608;9.958;2022-08-03T06:36:12;21.50;99.90
13856;DHT22;6998;53.608;9.958;2022-08-03T06:38:39;21.80;99.90
13856;DHT22;6998;53.608;9.958;2022-08-03T06:41:05;21.90;99.90
13856;DHT22;6998;53.608;9.958;2022-08-03T06:43:32;22.00;99.90
13856;DHT22;6998;53.608;9.958;2022-08-03T06:46:02;22.20;99.90
13856;DHT22;6998;53.608;9.958;2022-08-03T06:48:30;22.30;99.90
13856;DHT22;6998;53.608;9.958;2022-08-03T06:50:58;22.40;99.90
13856;DHT22;6998;53.608;9.958;2022-08-03T06:53:25;22.50;99.90
13856;DHT22;6998;53.608;9.958;2022-08-03T06:55:52;22.60;99.90
13856;DHT22;6998;53.608;9.958;2022-08-03T06:58:18;22.70;99.90
13856;DHT22;6998;53.608;9.958;2022-08-03T07:00:45;22.80;99.90
13856;DHT22;6998;53.608;9.958;2022-08-03T07:03:12;23.00;99.90
13856;DHT22;6998;53.608;9.958;2022-08-03T07:05:40;23.10;99.90
13856;DHT22;6998;53.608;9.958;2022-08-03T07:08:09;23.30;99.90
13856;DHT22;6998;53.608;9.958;2022-08-03T07:10:36;23.40;99.90
13856;DHT22;6998;53.608;9.958;2022-08-03T07:13:03;23.50;99.90
13856;DHT22;6998;53.608;9.958;2022-08-03T07:15:29;23.60;99.90
13856;DHT22;6998;53.608;9.958;2022-08-03T07:17:56;23.70;99.90
13856;DHT22;6998;53.608;9.958;2022-08-03T07:20:23;23.90;99.90
13856;DHT22;6998;53.608;9.958;2022-08-03T07:22:50;24.20;99.90
13856;DHT22;6998;53.608;9.958;2022-08-03T07:25:19;24.40;99.90
13856;DHT22;6998;53.608;9.958;2022-08-03T07:27:47;24.60;99.90
13856;DHT22;6998;53.608;9.958;2022-08-03T07:30:15;24.90;99.90
13856;DHT22;6998;53.608;9.958;2022-08-03T07:32:42;25.10;99.90
13856;DHT22;6998;53.608;9.958;2022-08-03T07:35:09;25.20;99.90
13856;DHT22;6998;53.608;9.958;2022-08-03T07:37:36;25.40;99.90
13856;DHT22;6998;53.608;9.958;2022-08-03T07:40:05;25.60;99.90
13856;DHT22;6998;53.608;9.958;2022-08-03T07:42:33;25.70;99.90
13856;DHT22;6998;53.608;9.958;2022-08-03T07:45:00;25.90;99.90
13856;DHT22;6998;53.608;9.958;2022-08-03T07:47:29;26.00;99.90
13856;DHT22;6998;53.608;9.958;2022-08-03T07:49:56;26.00;99.90
13856;DHT22;6998;53.608;9.958;2022-08-03T07:52:23;26.00;99.90
13856;DHT22;6998;53.608;9.958;2022-08-03T07:55:08;26.10;99.90
13856;DHT22;6998;53.608;9.958;2022-08-03T07:57:37;26.10;99.90
13856;DHT22;6998;53.608;9.958;2022-08-03T08:00:06;26.20;99.90
13856;DHT22;6998;53.608;9.958;2022-08-03T08:02:34;26.40;99.90
13856;DHT22;6998;53.608;9.958;2022-08-03T08:05:01;26.50;99.90
13856;DHT22;6998;53.608;9.958;2022-08-03T08:07:27;26.60;99.90
13856;DHT22;6998;53.608;9.958;2022-08-03T08:09:54;26.60;99.90
13856;DHT22;6998;53.608;9.958;2022-08-03T08:12:21;26.70;99.90
13856;DHT22;6998;53.608;9.958;2022-08-03T08:14:49;26.80;99.90
13856;DHT22;6998;53.608;9.958;2022-08-03T08:17:16;26.90;99.90
13856;DHT22;6998;53.608;9.958;2022-08-03T08:19:44;26.90;99.90
13856;DHT22;6998;53.608;9.958;2022-08-03T08:22:11;26.90;99.90
13856;DHT22;6998;53.608;9.958;2022-08-03T08:24:38;27.00;99.90
13856;DHT22;6998;53.608;9.958;2022-08-03T08:27:04;27.20;99.90
13856;DHT22;6998;53.608;9.958;2022-08-03T08:29:33;27.20;99.90
13856;DHT22;6998;53.608;9.958;2022-08-03T08:32:01;27.40;99.90
13856;DHT22;6998;53.608;9.958;2022-08-03T08:34:28;27.50;99.90
13856;DHT22;6998;53.608;9.958;2022-08-03T08:36:54;27.60;99.90
13856;DHT22;6998;53.608;9.958;2022-08-03T08:39:21;27.80;99.90
13856;DHT22;6998;53.608;9.958;2022-08-03T08:41:49;28.00;99.90
13856;DHT22;6998;53.608;9.958;2022-08-03T08:44:16;28.00;99.90
13856;DHT22;6998;53.608;9.958;2022-08-03T08:46:43;28.10;99.90
13856;DHT22;6998;53.608;9.958;2022-08-03T08:49:16;28.10;99.90
13856;DHT22;6998;53.608;9.958;2022-08-03T08:51:46;28.20;99.90
13856;DHT22;6998;53.608;9.958;2022-08-03T08:54:14;28.10;99.90
13856;DHT22;6998;53.608;9.958;2022-08-03T08:56:42;28.20;99.90
13856;DHT22;6998;53.608;9.958;2022-08-03T08:59:09;28.20;99.90
13856;DHT22;6998;53.608;9.958;2022-08-03T09:01:36;28.10;99.90
13856;DHT22;6998;53.608;9.958;2022-08-03T09:04:05;28.10;99.90
13856;DHT22;6998;53.608;9.958;2022-08-03T09:06:33;28.20;99.90
13856;DHT22;6998;53.608;9.958;2022-08-03T09:09:00;28.40;99.90
13856;DHT22;6998;53.608;9.958;2022-08-03T09:11:27;28.50;99.90
13856;DHT22;6998;53.608;9.958;2022-08-03T09:13:53;28.60;99.90
13856;DHT22;6998;53.608;9.958;2022-08-03T09:16:21;28.40;99.90
13856;DHT22;6998;53.608;9.958;2022-08-03T09:18:50;28.40;99.90
13856;DHT22;6998;53.608;9.958;2022-08-03T09:21:20;28.60;99.90
13856;DHT22;6998;53.608;9.958;2022-08-03T09:23:50;28.70;99.90
13856;DHT22;6998;53.608;9.958;2022-08-03T09:26:21;28.90;99.90
13856;DHT22;6998;53.608;9.958;2022-08-03T09:28:54;29.10;99.90
13856;DHT22;6998;53.608;9.958;2022-08-03T09:31:32;29.10;99.90
13856;DHT22;6998;53.608;9.958;2022-08-03T09:34:01;29.30;99.90
13856;DHT22;6998;53.608;9.958;2022-08-03T09:36:38;29.20;99.90
13856;DHT22;6998;53.608;9.958;2022-08-03T09:39:08;29.40;99.90
13856;DHT22;6998;53.608;9.958;2022-08-03T09:41:37;29.60;99.90
13856;DHT22;6998;53.608;9.958;2022-08-03T09:44:05;29.50;99.90
13856;DHT22;6998;53.608;9.958;2022-08-03T09:46:38;29.50;99.90
13856;DHT22;6998;53.608;9.958;2022-08-03T09:49:12;29.60;99.90
13856;DHT22;6998;53.608;9.958;2022-08-03T09:51:39;29.40;99.90
13856;DHT22;6998;53.608;9.958;2022-08-03T09:54:08;29.50;99.90
13856;DHT22;6998;53.608;9.958;2022-08-03T09:56:42;29.70;99.90
13856;DHT22;6998;53.608;9.958;2022-08-03T09:59:10;29.90;99.90
13856;DHT22;6998;53.608;9.958;2022-08-03T10:01:38;30.10;99.90
13856;DHT22;6998;53.608;9.958;2022-08-03T10:04:11;30.40;99.90
13856;DHT22;6998;53.608;9.958;2022-08-03T10:06:39;30.40;99.90
13856;DHT22;6998;53.608;9.958;2022-08-03T10:09:09;30.50;99.90
13856;DHT22;6998;53.608;9.958;2022-08-03T10:11:37;30.30;99.90
13856;DHT22;6998;53.608;9.958;2022-08-03T10:14:06;30.20;99.90
13856;DHT22;6998;53.608;9.958;2022-08-03T10:16:34;30.10;99.90
13856;DHT22;6998;53.608;9.958;2022-08-03T10:19:02;30.20;99.90
13856;DHT22;6998;53.608;9.958;2022-08-03T10:21:32;30.30;99.90
13856;DHT22;6998;53.608;9.958;2022-08-03T10:24:02;30.50;99.90
13856;DHT22;6998;53.608;9.958;2022-08-03T10:26:32;30.50;99.90
13856;DHT22;6998;53.608;9.958;2022-08-03T10:29:02;30.60;99.90
13856;DHT22;6998;53.608;9.958;2022-08-03T10:31:34;30.80;99.90
13856;DHT22;6998;53.608;9.958;2022-08-03T10:34:05;30.80;99.90
13856;DHT22;6998;53.608;9.958;2022-08-03T10:36:35;30.90;99.90
13856;DHT22;6998;53.608;9.958;2022-08-03T10:39:03;31.10;99.90
13856;DHT22;6998;53.608;9.958;2022-08-03T10:41:38;31.40;99.90
13856;DHT22;6998;53.608;9.958;2022-08-03T10:44:08;31.50;99.90
13856;DHT22;6998;53.608;9.958;2022-08-03T10:46:38;31.20;99.90
13856;DHT22;6998;53.608;9.958;2022-08-03T10:49:05;30.90;99.90
13856;DHT22;6998;53.608;9.958;2022-08-03T10:51:33;30.50;99.90
13856;DHT22;6998;53.608;9.958;2022-08-03T10:54:00;30.50;99.90
13856;DHT22;6998;53.608;9.958;2022-08-03T10:56:41;30.60;99.90
13856;DHT22;6998;53.608;9.958;2022-08-03T10:59:56;30.70;99.90
13856;DHT22;6998;53.608;9.958;2022-08-03T11:03:02;30.80;99.90
13856;DHT22;6998;53.608;9.958;2022-08-03T11:05:32;31.00;99.90
13856;DHT22;6998;53.608;9.958;2022-08-03T11:08:28;31.20;99.90
13856;DHT22;6998;53.608;9.958;2022-08-03T11:10:58;31.10;99.90
13856;DHT22;6998;53.608;9.958;2022-08-03T11:13:28;30.90;99.90
13856;DHT22;6998;53.608;9.958;2022-08-03T11:15:58;31.00;99.90
13856;DHT22;6998;53.608;9.958;2022-08-03T11:18:25;31.10;99.90
13856;DHT22;6998;53.608;9.958;2022-08-03T11:20:53;31.00;99.90
13856;DHT22;6998;53.608;9.958;2022-08-03T11:23:39;31.20;99.90
13856;DHT22;6998;53.608;9.958;2022-08-03T11:26:14;31.40;99.90
13856;DHT22;6998;53.608;9.958;2022-08-03T11:28:44;31.80;99.90
13856;DHT22;6998;53.608;9.958;2022-08-03T11:31:44;31.80;99.90
13856;DHT22;6998;53.608;9.958;2022-08-03T11:34:14;31.80;99.90
13856;DHT22;6998;53.608;9.958;2022-08-03T11:39:46;31.50;99.90
13856;DHT22;6998;53.608;9.958;2022-08-03T11:42:42;31.50;99.90
13856;DHT22;6998;53.608;9.958;2022-08-03T11:45:13;31.60;99.90
13856;DHT22;6998;53.608;9.958;2022-08-03T11:47:41;31.60;99.90
13856;DHT22;6998;53.608;9.958;2022-08-03T11:50:09;31.70;99.90
13856;DHT22;6998;53.608;9.958;2022-08-03T11:52:40;31.80;99.90
13856;DHT22;6998;53.608;9.958;2022-08-03T11:55:15;32.00;99.90
13856;DHT22;6998;53.608;9.958;2022-08-03T11:57:43;32.20;99.90
13856;DHT22;6998;53.608;9.958;2022-08-03T12:00:24;32.30;99.90
13856;DHT22;6998;53.608;9.958;2022-08-03T12:03:09;32.30;99.90
13856;DHT22;6998;53.608;9.958;2022-08-03T12:05:41;32.40;99.90
13856;DHT22;6998;53.608;9.958;2022-08-03T12:08:09;32.50;99.90
13856;DHT22;6998;53.608;9.958;2022-08-03T12:10:38;32.80;99.90
13856;DHT22;6998;53.608;9.958;2022-08-03T12:13:05;32.90;99.90
13856;DHT22;6998;53.608;9.958;2022-08-03T12:15:35;32.90;99.90
13856;DHT22;6998;53.608;9.958;2022-08-03T12:18:14;32.70;99.90
13856;DHT22;6998;53.608;9.958;2022-08-03T12:20:41;32.90;99.90
13856;DHT22;6998;53.608;9.958;2022-08-03T12:23:08;33.00;99.90
13856;DHT22;6998;53.608;9.958;2022-08-03T12:25:37;32.90;99.90
13856;DHT22;6998;53.608;9.958;2022-08-03T12:28:13;33.00;99.90
13856;DHT22;6998;53.608;9.958;2022-08-03T12:30:46;33.10;99.90
13856;DHT22;6998;53.608;9.958;2022-08-03T12:33:18;33.10;99.90
13856;DHT22;6998;53.608;9.958;2022-08-03T12:35:50;33.10;99.90
13856;DHT22;6998;53.608;9.958;2022-08-03T12:38:21;32.80;99.90
13856;DHT22;6998;53.608;9.958;2022-08-03T12:40:58;33.10;99.90
13856;DHT22;6998;53.608;9.958;2022-08-03T12:43:25;33.40;99.90
13856;DHT22;6998;53.608;9.958;2022-08-03T12:46:11;33.80;99.90
13856;DHT22;6998;53.608;9.958;2022-08-03T12:48:57;33.70;99.90
13856;DHT22;6998;53.608;9.958;2022-08-03T12:51:24;33.50;99.90
13856;DHT22;6998;53.608;9.958;2022-08-03T12:53:52;33.30;99.90
13856;DHT22;6998;53.608;9.958;2022-08-03T12:56:19;33.40;99.90
13856;DHT22;6998;53.608;9.958;2022-08-03T12:58:46;33.50;99.90
13856;DHT22;6998;53.608;9.958;2022-08-03T13:01:16;33.30;99.90
13856;DHT22;6998;53.608;9.958;2022-08-03T13:03:44;33.10;99.90
13856;DHT22;6998;53.608;9.958;2022-08-03T13:06:11;32.80;99.90
13856;DHT22;6998;53.608;9.958;2022-08-03T13:08:39;32.90;99.90
13856;DHT22;6998;53.608;9.958;2022-08-03T13:11:19;33.20;99.90
13856;DHT22;6998;53.608;9.958;2022-08-03T13:13:46;33.20;99.90
13856;DHT22;6998;53.608;9.958;2022-08-03T13:16:13;33.10;99.90
13856;DHT22;6998;53.608;9.958;2022-08-03T13:18:41;33.00;99.90
13856;DHT22;6998;53.608;9.958;2022-08-03T13:21:11;32.90;99.90
13856;DHT22;6998;53.608;9.958;2022-08-03T13:23:38;32.90;99.90
13856;DHT22;6998;53.608;9.958;2022-08-03T13:26:05;33.20;99.90
13856;DHT22;6998;53.608;9.958;2022-08-03T13:28:31;33.40;99.90
13856;DHT22;6998;53.608;9.958;2022-08-03T13:30:58;33.60;99.90
13856;DHT22;6998;53.608;9.958;2022-08-03T13:33:26;33.60;99.90
13856;DHT22;6998;53.608;9.958;2022-08-03T13:35:54;33.60;99.90
13856;DHT22;6998;53.608;9.958;2022-08-03T13:38:21;33.60;99.90
13856;DHT22;6998;53.608;9.958;2022-08-03T13:40:48;33.60;99.90
13856;DHT22;6998;53.608;9.958;2022-08-03T13:43:16;33.80;99.90
13856;DHT22;6998;53.608;9.958;2022-08-03T13:45:43;33.90;99.90
13856;DHT22;6998;53.608;9.958;2022-08-03T13:48:10;34.00;99.90
13856;DHT22;6998;53.608;9.958;2022-08-03T13:50:37;34.20;99.90
13856;DHT22;6998;53.608;9.958;2022-08-03T13:53:05;34.20;99.90
13856;DHT22;6998;53.608;9.958;2022-08-03T13:55:31;34.30;99.30
13856;DHT22;6998;53.608;9.958;2022-08-03T13:57:59;34.20;99.70
13856;DHT22;6998;53.608;9.958;2022-08-03T14:00:25;33.80;99.90
13856;DHT22;6998;53.608;9.958;2022-08-03T14:02:52;33.80;99.90
13856;DHT22;6998;53.608;9.958;2022-08-03T14:05:19;33.80;99.90
13856;DHT22;6998;53.608;9.958;2022-08-03T14:07:46;34.10;99.90
13856;DHT22;6998;53.608;9.958;2022-08-03T14:10:15;34.30;99.90
13856;DHT22;6998;53.608;9.958;2022-08-03T14:12:42;34.40;99.80
13856;DHT22;6998;53.608;9.958;2022-08-03T14:15:09;34.30;99.00
13856;DHT22;6998;53.608;9.958;2022-08-03T14:17:37;34.30;99.30
13856;DHT22;6998;53.608;9.958;2022-08-03T14:20:05;34.50;99.90
13856;DHT22;6998;53.608;9.958;2022-08-03T14:22:32;34.70;99.30
13856;DHT22;6998;53.608;9.958;2022-08-03T14:24:59;34.20;98.80
13856;DHT22;6998;53.608;9.958;2022-08-03T14:27:27;34.00;99.50
13856;DHT22;6998;53.608;9.958;2022-08-03T14:29:54;34.00;99.80
13856;DHT22;6998;53.608;9.958;2022-08-03T14:32:24;34.30;99.40
13856;DHT22;6998;53.608;9.958;2022-08-03T14:34:51;34.50;99.50
13856;DHT22;6998;53.608;9.958;2022-08-03T14:37:18;34.60;99.70
13856;DHT22;6998;53.608;9.958;2022-08-03T14:39:44;34.50;99.00
13856;DHT22;6998;53.608;9.958;2022-08-03T14:42:13;34.50;98.60
13856;DHT22;6998;53.608;9.958;2022-08-03T14:44:42;34.30;98.10
13856;DHT22;6998;53.608;9.958;2022-08-03T14:47:09;34.00;98.70
13856;DHT22;6998;53.608;9.958;2022-08-03T14:49:36;34.00;99.10
13856;DHT22;6998;53.608;9.958;2022-08-03T14:52:03;34.00;99.50
13856;DHT22;6998;53.608;9.958;2022-08-03T14:54:30;34.10;98.40
13856;DHT22;6998;53.608;9.958;2022-08-03T14:56:57;34.30;99.50
13856;DHT22;6998;53.608;9.958;2022-08-03T14:59:24;34.50;99.80
13856;DHT22;6998;53.608;9.958;2022-08-03T15:01:53;34.60;99.10
13856;DHT22;6998;53.608;9.958;2022-08-03T15:04:20;34.70;98.70
13856;DHT22;6998;53.608;9.958;2022-08-03T15:06:47;34.80;98.30
13856;DHT22;6998;53.608;9.958;2022-08-03T15:09:14;34.80;97.70
13856;DHT22;6998;53.608;9.958;2022-08-03T15:11:41;34.90;97.50
13856;DHT22;6998;53.608;9.958;2022-08-03T15:14:07;34.90;97.20
13856;DHT22;6998;53.608;9.958;2022-08-03T15:16:34;35.00;98.40
13856;DHT22;6998;53.608;9.958;2022-08-03T15:19:02;35.10;98.10
13856;DHT22;6998;53.608;9.958;2022-08-03T15:21:29;35.20;98.20
13856;DHT22;6998;53.608;9.958;2022-08-03T15:23:56;35.30;97.20
13856;DHT22;6998;53.608;9.958;2022-08-03T15:26:23;35.30;97.80
13856;DHT22;6998;53.608;9.958;2022-08-03T15:28:50;35.30;97.70
13856;DHT22;6998;53.608;9.958;2022-08-03T15:31:20;35.10;97.50
13856;DHT22;6998;53.608;9.958;2022-08-03T15:33:47;35.10;97.80
13856;DHT22;6998;53.608;9.958;2022-08-03T15:36:16;35.10;97.70
13856;DHT22;6998;53.608;9.958;2022-08-03T15:38:43;35.20;98.00
13856;DHT22;6998;53.608;9.958;2022-08-03T15:41:10;35.20;97.70
13856;DHT22;6998;53.608;9.958;2022-08-03T15:43:37;35.10;97.00
13856;DHT22;6998;53.608;9.958;2022-08-03T15:46:04;34.80;97.10
13856;DHT22;6998;53.608;9.958;2022-08-03T15:48:31;34.40;97.90
13856;DHT22;6998;53.608;9.958;2022-08-03T15:50:58;34.00;98.30
13856;DHT22;6998;53.608;9.958;2022-08-03T15:53:26;34.00;97.50
13856;DHT22;6998;53.608;9.958;2022-08-03T15:55:53;34.30;97.90
13856;DHT22;6998;53.608;9.958;2022-08-03T15:58:19;34.60;97.90
13856;DHT22;6998;53.608;9.958;2022-08-03T16:00:46;34.90;97.70